South Milwaukee, Wisconsin
Current Conditions -  °F | °C
As of 3:52 PM on Sunday 21 Dec 2014 (Local Time) from KMKE Reporting Station
Overcast Overcast  
Wind Chill: 28°   Ceiling: 3700
Heat Index: 36°   Visibility: 7mi
Dew Point: 28°   Wind: 10mph
Humidity: 73%   Direction: 180°S
Pressure: 30.06"   Gusts: NA
Location:  42.91°N, 87.87°W
Report Text: KMKE 212152Z 18009KT 7SM OVC037 02/M02 A3006 RMK AO2 SLP187 T00221022 $
Loading
Personal Weather Stations






























Interactive Weather Map New forecast layout! Learn more

10-Day Weather Forecast

Advertisements
Track Severe Weather on mobile